Terminal Aerodrome Forecast
Issued by NWS Rapid City, SD

Home | Current Version | Previous Version | Graphics & Text | Print | Product List | Glossary On
Versions: 1 2 3 4 5 6 7 8 9 10 11 12 13 14 15 16 17 18 19 20
000
FTUS43 KUNR 100500
TAFRAP
TAF
KRAP 100520Z 1006/1106 10008KT P6SM SKC
     FM101200 VRB05KT P6SM BKN120
      TEMPO 1012/1015 -TSRA BKN080CB
     FM101800 02012KT P6SM BKN120=

USA.gov is the U.S. government's official web portal to all federal, state and local government web resources and services.